Time;durP1;ratioP1;P1;durP2;ratioP2;P2;SDS_P1;SDS_P2;PMS_P1;PMS_P2;Temp;Humidity;BMP_temperature;BMP_pressure;BME280_temperature;BME280_humidity;BME280_pressure;Samples;Min_cycle;Max_cycle;Signal;HPM_P1;HPM_P2
2021/12/30 00:03:49;;;;;;;4.65;3.60;;;;;;;6.93;100.00;97663.16;10472340;28;20494;-60
2021/12/30 00:08:54;;;;;;;6.60;3.78;;;;;;;6.94;100.00;97669.34;10478166;28;20040;-64
2021/12/30 00:13:58;;;;;;;5.45;3.80;;;;;;;6.96;100.00;97677.22;10475136;28;20040;-62
2021/12/30 00:19:01;;;;;;;4.43;3.83;;;;;;;6.95;100.00;97681.75;10476943;28;20048;-63
2021/12/30 00:24:05;;;;;;;6.72;3.60;;;;;;;7.00;100.00;97692.81;10477465;28;20844;-64
2021/12/30 00:29:10;;;;;;;3.70;3.17;;;;;;;7.00;100.00;97698.16;10474890;28;20436;-65
2021/12/30 00:34:13;;;;;;;3.67;3.35;;;;;;;7.01;100.00;97715.91;10485327;28;20075;-63
2021/12/30 00:39:16;;;;;;;5.35;3.30;;;;;;;7.01;100.00;97723.94;10498130;28;20032;-63
2021/12/30 00:44:21;;;;;;;3.80;3.30;;;;;;;7.06;100.00;97735.03;10504257;28;20214;-63
2021/12/30 00:49:24;;;;;;;5.75;3.40;;;;;;;7.08;100.00;97743.78;10492103;28;20044;-63
2021/12/30 00:54:27;;;;;;;4.25;3.00;;;;;;;7.12;100.00;97752.34;10492303;28;20131;-63
2021/12/30 00:59:32;;;;;;;3.95;3.08;;;;;;;7.15;100.00;97754.72;10502154;28;20497;-64
2021/12/30 01:04:35;;;;;;;3.45;2.80;;;;;;;7.19;100.00;97763.25;10508439;28;20059;-64
2021/12/30 01:09:39;;;;;;;2.80;2.55;;;;;;;7.21;100.00;97769.31;10491848;28;20064;-62
2021/12/30 01:14:46;;;;;;;4.43;2.60;;;;;;;7.27;100.00;97782.06;10497607;28;20048;-65
2021/12/30 01:19:51;;;;;;;3.47;2.33;;;;;;;7.28;100.00;97793.66;10490716;28;20036;-62
2021/12/30 01:24:54;;;;;;;3.90;2.63;;;;;;;7.28;100.00;97815.91;10485951;28;20048;-63
2021/12/30 01:29:59;;;;;;;3.42;2.80;;;;;;;7.29;100.00;97817.59;10497569;28;20408;-62
2021/12/30 01:35:04;;;;;;;5.40;2.70;;;;;;;7.32;100.00;97821.78;10481370;28;20062;-62
2021/12/30 01:40:11;;;;;;;3.13;2.45;;;;;;;7.38;100.00;97811.28;10501355;28;20552;-64
2021/12/30 01:45:17;;;;;;;3.47;2.50;;;;;;;7.43;100.00;97820.72;10493991;28;20143;-63
2021/12/30 01:50:22;;;;;;;3.75;3.05;;;;;;;7.49;100.00;97828.13;10471906;28;20047;-58
2021/12/30 01:55:26;;;;;;;2.03;1.83;;;;;;;7.65;100.00;97833.59;10481991;28;20055;-62
2021/12/30 02:00:32;;;;;;;1.98;1.77;;;;;;;7.77;100.00;97825.28;10502097;28;20151;-57
2021/12/30 02:05:37;;;;;;;2.97;1.80;;;;;;;7.82;100.00;97818.47;10500042;28;20047;-62
2021/12/30 02:10:41;;;;;;;4.05;1.83;;;;;;;7.92;100.00;97837.13;10492766;28;20460;-61
2021/12/30 02:15:46;;;;;;;3.42;2.13;;;;;;;7.96;100.00;97859.09;10475694;28;20056;-61
2021/12/30 02:20:53;;;;;;;4.22;2.13;;;;;;;7.92;100.00;97866.63;10499330;28;20119;-61
2021/12/30 02:25:59;;;;;;;2.25;2.05;;;;;;;7.88;100.00;97883.19;10470339;28;20106;-62
2021/12/30 02:31:05;;;;;;;3.50;2.00;;;;;;;7.85;100.00;97884.34;10497833;28;20123;-61
2021/12/30 02:36:10;;;;;;;2.83;2.10;;;;;;;7.86;100.00;97892.25;10499628;28;20049;-62
2021/12/30 02:41:17;;;;;;;3.97;2.58;;;;;;;7.90;100.00;97913.38;10481551;28;20459;-63
2021/12/30 02:46:22;;;;;;;4.32;2.70;;;;;;;7.96;100.00;97900.16;10487955;28;20044;-59
2021/12/30 02:51:28;;;;;;;3.72;2.70;;;;;;;8.04;100.00;97890.50;10502205;28;20127;-57
2021/12/30 02:56:31;;;;;;;4.20;2.90;;;;;;;8.17;100.00;97909.72;10491165;28;20044;-60
2021/12/30 03:01:34;;;;;;;5.00;2.83;;;;;;;8.41;100.00;97929.63;10498952;28;20046;-63
2021/12/30 03:06:41;;;;;;;7.63;3.05;;;;;;;8.52;100.00;97929.38;10490308;28;20048;-65
2021/12/30 03:11:44;;;;;;;4.20;2.45;;;;;;;8.66;100.00;97930.63;10476243;28;20048;-58
2021/12/30 03:16:48;;;;;;;5.80;2.50;;;;;;;8.69;100.00;97943.72;10503556;28;20051;-58
2021/12/30 03:21:55;;;;;;;5.57;2.80;;;;;;;8.80;100.00;97956.00;10506503;28;20108;-57
2021/12/30 03:26:59;;;;;;;7.50;2.78;;;;;;;9.00;100.00;97947.69;10498364;28;20189;-56
2021/12/30 03:32:02;;;;;;;6.72;2.63;;;;;;;9.10;100.00;97948.41;10496958;28;20584;-59
2021/12/30 03:37:06;;;;;;;5.45;2.50;;;;;;;9.17;100.00;97957.47;10511027;28;20039;-69
2021/12/30 03:42:09;;;;;;;4.82;2.40;;;;;;;9.24;100.00;97953.13;10499294;28;20040;-64
2021/12/30 03:47:16;;;;;;;6.82;2.97;;;;;;;9.28;100.00;97960.88;10511256;28;20046;-59
2021/12/30 03:52:26;;;;;;;7.63;2.90;;;;;;;9.50;100.00;97973.69;10497926;28;20049;-67
2021/12/30 03:57:30;;;;;;;10.77;2.75;;;;;;;9.45;100.00;97964.44;10504631;28;20532;-67
2021/12/30 04:02:33;;;;;;;9.52;3.00;;;;;;;9.53;100.00;97981.41;10488823;28;20063;-58
2021/12/30 04:07:39;;;;;;;6.10;2.80;;;;;;;9.62;100.00;98008.31;10478433;28;20505;-60
2021/12/30 04:12:46;;;;;;;9.85;3.08;;;;;;;9.64;100.00;97990.19;10493945;28;20489;-64
2021/12/30 04:17:49;;;;;;;7.28;2.95;;;;;;;9.61;100.00;98002.13;10509415;28;20046;-57
2021/12/30 04:22:53;;;;;;;8.90;2.92;;;;;;;9.64;100.00;98017.91;10497071;28;20050;-57
2021/12/30 04:27:59;;;;;;;6.43;2.90;;;;;;;9.77;100.00;98022.81;10507768;28;20040;-55
2021/12/30 04:33:02;;;;;;;7.88;3.08;;;;;;;9.78;100.00;98035.25;10503147;28;20047;-55
2021/12/30 04:38:07;;;;;;;5.57;2.53;;;;;;;9.72;100.00;98027.84;10496810;28;20044;-54
2021/12/30 04:43:11;;;;;;;10.45;2.88;;;;;;;9.77;100.00;98038.94;10495094;28;20040;-57
2021/12/30 04:48:14;;;;;;;7.00;2.70;;;;;;;9.89;100.00;98022.50;10498125;28;20507;-61
2021/12/30 04:53:19;;;;;;;12.18;2.67;;;;;;;9.90;100.00;98026.88;10479169;28;20058;-64
2021/12/30 04:58:22;;;;;;;8.18;2.92;;;;;;;9.91;100.00;98042.00;10499796;28;20050;-58
2021/12/30 05:03:25;;;;;;;12.68;2.90;;;;;;;9.80;100.00;98072.75;10502230;28;20575;-54
2021/12/30 05:08:30;;;;;;;13.32;3.10;;;;;;;9.87;100.00;98087.25;10481530;28;20174;-55
2021/12/30 05:13:33;;;;;;;12.95;3.15;;;;;;;9.94;100.00;98077.50;10477006;28;20662;-58
2021/12/30 05:18:37;;;;;;;13.07;3.30;;;;;;;10.08;100.00;98067.91;10474740;28;20055;-54
2021/12/30 05:23:41;;;;;;;13.27;3.58;;;;;;;10.03;100.00;98072.97;10438621;28;20164;-54
2021/12/30 05:28:45;;;;;;;10.63;2.90;;;;;;;10.03;100.00;98064.88;10443944;28;20068;-54
2021/12/30 05:33:48;;;;;;;11.35;3.17;;;;;;;10.04;100.00;98053.13;10434353;28;20057;-65
2021/12/30 05:38:53;;;;;;;10.00;3.10;;;;;;;10.05;100.00;98067.41;10461761;28;20123;-62
2021/12/30 05:43:58;;;;;;;14.57;3.30;;;;;;;9.98;100.00;98062.72;10447362;28;20096;-60
2021/12/30 05:49:01;;;;;;;9.93;3.00;;;;;;;9.92;100.00;98068.72;10440534;28;20033;-55
2021/12/30 05:54:06;;;;;;;14.10;3.03;;;;;;;9.87;100.00;98082.69;10445522;28;20048;-61
2021/12/30 05:59:09;;;;;;;12.02;2.83;;;;;;;9.83;100.00;98072.44;10445438;28;20033;-65
2021/12/30 06:04:13;;;;;;;11.50;3.00;;;;;;;9.77;100.00;98081.13;10462273;28;20044;-55
2021/12/30 06:09:17;;;;;;;10.82;3.10;;;;;;;9.78;100.00;98078.31;10458529;28;20123;-60
2021/12/30 06:14:21;;;;;;;12.18;3.35;;;;;;;9.82;100.00;98076.13;10441106;28;20037;-64
2021/12/30 06:19:25;;;;;;;12.25;3.30;;;;;;;9.83;100.00;98088.56;10458276;28;20719;-62
2021/12/30 06:24:30;;;;;;;11.25;3.15;;;;;;;9.83;100.00;98088.56;10442014;28;20060;-62
2021/12/30 06:29:34;;;;;;;15.07;3.55;;;;;;;9.80;100.00;98086.19;10437479;28;20123;-61
2021/12/30 06:34:37;;;;;;;17.23;3.50;;;;;;;9.91;100.00;98083.19;10441073;28;20083;-61
2021/12/30 06:39:42;;;;;;;13.00;3.17;;;;;;;9.81;100.00;98083.38;10443531;28;20126;-62
2021/12/30 06:44:46;;;;;;;15.65;3.65;;;;;;;9.84;100.00;98096.47;10444982;28;20041;-63
2021/12/30 06:49:49;;;;;;;19.25;4.10;;;;;;;9.84;100.00;98103.72;10452316;28;20033;-61
2021/12/30 06:54:54;;;;;;;17.73;3.95;;;;;;;9.80;100.00;98096.97;10446685;28;20057;-62
2021/12/30 06:59:59;;;;;;;14.43;3.47;;;;;;;9.85;100.00;98113.47;10449489;28;20160;-61
2021/12/30 07:05:03;;;;;;;13.52;3.60;;;;;;;9.78;100.00;98126.72;10448561;28;21184;-62
2021/12/30 07:10:09;;;;;;;16.63;3.10;;;;;;;9.68;100.00;98143.00;10455391;28;20378;-62
2021/12/30 07:15:12;;;;;;;13.63;3.38;;;;;;;9.68;100.00;98134.91;10456862;28;20040;-62
2021/12/30 07:20:16;;;;;;;14.75;3.30;;;;;;;9.64;100.00;98132.72;10471098;28;20564;-58
2021/12/30 07:25:20;;;;;;;15.88;3.10;;;;;;;9.59;100.00;98126.97;10478009;28;20115;-60
2021/12/30 07:30:26;;;;;;;12.93;3.17;;;;;;;9.58;100.00;98152.22;10461043;28;20122;-62
2021/12/30 07:35:29;;;;;;;9.82;3.17;;;;;;;9.49;100.00;98173.66;10460922;28;20060;-58
2021/12/30 07:40:34;;;;;;;11.70;2.65;;;;;;;9.52;100.00;98181.41;10470006;28;20583;-60
2021/12/30 07:45:37;;;;;;;12.75;2.50;;;;;;;9.58;100.00;98195.25;10463469;28;20045;-61
2021/12/30 07:50:40;;;;;;;15.93;3.00;;;;;;;9.58;100.00;98195.25;10465711;28;20103;-59
2021/12/30 07:55:45;;;;;;;10.88;2.80;;;;;;;9.58;100.00;98195.25;10461361;28;20041;-59
2021/12/30 08:00:48;;;;;;;11.32;2.60;;;;;;;9.59;100.00;98202.28;10459415;28;20528;-57
2021/12/30 08:05:52;;;;;;;15.20;3.40;;;;;;;9.60;100.00;98217.41;10449429;28;20048;-58
2021/12/30 08:10:57;;;;;;;16.20;3.35;;;;;;;9.62;100.00;98218.09;10453524;28;20509;-55
2021/12/30 08:16:13;;;;;;;12.70;2.92;;;;;;;9.66;100.00;98204.16;10456110;28;20509;-62
2021/12/30 08:21:17;;;;;;;11.60;3.42;;;;;;;9.66;100.00;98208.72;10449211;28;20477;-63
2021/12/30 08:26:22;;;;;;;14.38;4.05;;;;;;;9.60;100.00;98198.59;10448564;28;20068;-62
2021/12/30 08:31:25;;;;;;;12.25;3.95;;;;;;;9.58;100.00;98206.00;10440780;28;20135;-63
2021/12/30 08:36:32;;;;;;;11.35;3.28;;;;;;;9.53;100.00;98210.00;10441989;28;20064;-62
2021/12/30 08:41:37;;;;;;;14.75;3.30;;;;;;;9.52;100.00;98196.72;10443741;28;20124;-62
2021/12/30 08:46:40;;;;;;;15.57;3.30;;;;;;;9.50;100.00;98199.56;10459147;28;20566;-63
2021/12/30 08:51:44;;;;;;;11.35;3.30;;;;;;;9.52;100.00;98200.25;10463282;28;20319;-62
2021/12/30 08:56:48;;;;;;;15.63;3.40;;;;;;;9.55;100.00;98207.16;10466483;28;20106;-62
2021/12/30 09:01:51;;;;;;;13.45;2.75;;;;;;;9.59;100.00;98196.91;10466839;28;20464;-63
2021/12/30 09:06:55;;;;;;;10.95;2.78;;;;;;;9.63;100.00;98198.28;10458587;28;20417;-62
2021/12/30 09:12:03;;;;;;;12.82;3.03;;;;;;;9.71;100.00;98191.09;10461190;28;20045;-62
2021/12/30 09:17:07;;;;;;;12.05;2.92;;;;;;;9.77;100.00;98195.00;10454685;28;20112;-62
2021/12/30 09:22:10;;;;;;;11.35;3.42;;;;;;;9.81;100.00;98217.88;10465171;28;20048;-61
2021/12/30 09:27:14;;;;;;;10.30;3.22;;;;;;;9.83;100.00;98215.03;10460879;28;20167;-62
2021/12/30 09:32:18;;;;;;;14.57;3.47;;;;;;;9.82;100.00;98213.34;10434836;28;20064;-62
2021/12/30 09:37:21;;;;;;;8.93;2.80;;;;;;;9.86;100.00;98212.00;10458186;28;20072;-62
2021/12/30 09:42:25;;;;;;;12.63;3.00;;;;;;;9.91;100.00;98222.28;10454809;28;20115;-63
2021/12/30 09:47:28;;;;;;;8.68;2.22;;;;;;;9.92;100.00;98208.66;10455313;28;20040;-60
2021/12/30 09:52:31;;;;;;;6.30;1.92;;;;;;;10.02;100.00;98201.28;10426367;28;20127;-62
2021/12/30 09:57:38;;;;;;;6.10;1.70;;;;;;;10.10;100.00;98208.56;10451023;28;20560;-63
2021/12/30 10:02:43;;;;;;;5.95;1.40;;;;;;;10.23;100.00;98205.38;10465976;28;20060;-60
2021/12/30 10:07:47;;;;;;;5.80;1.40;;;;;;;10.35;100.00;98197.03;10438472;28;20143;-62
2021/12/30 10:12:52;;;;;;;3.75;1.20;;;;;;;10.46;100.00;98202.94;10443069;28;20115;-62
2021/12/30 10:17:56;;;;;;;3.63;1.20;;;;;;;10.57;100.00;98198.25;10449369;28;20492;-63
2021/12/30 10:23:10;;;;;;;4.15;1.00;;;;;;;10.67;100.00;98196.22;10458992;28;20442;-62
2021/12/30 10:28:27;;;;;;;2.17;0.90;;;;;;;10.92;100.00;98188.16;10454783;28;20068;-62
2021/12/30 10:33:31;;;;;;;2.70;0.90;;;;;;;10.95;100.00;98194.03;10448305;28;20080;-63
2021/12/30 10:38:34;;;;;;;1.88;0.75;;;;;;;11.08;100.00;98193.53;10462721;28;20871;-62
2021/12/30 10:43:45;;;;;;;3.35;0.70;;;;;;;11.24;100.00;98202.59;10460385;28;20094;-61
2021/12/30 10:49:01;;;;;;;2.90;0.75;;;;;;;11.31;100.00;98210.84;10453674;28;20121;-62
2021/12/30 10:54:20;;;;;;;1.98;0.70;;;;;;;11.41;100.00;98182.69;10434566;28;20092;-61
2021/12/30 10:59:27;;;;;;;2.33;0.77;;;;;;;11.49;100.00;98184.53;10457756;28;20072;-60
2021/12/30 11:04:36;;;;;;;1.23;0.60;;;;;;;11.56;100.00;98179.28;10427655;28;20036;-62
2021/12/30 11:09:47;;;;;;;1.20;0.60;;;;;;;11.60;100.00;98191.38;10457095;28;20041;-64
2021/12/30 11:14:52;;;;;;;1.85;0.85;;;;;;;11.64;100.00;98181.94;10457532;28;20033;-64
2021/12/30 11:19:58;;;;;;;1.50;0.70;;;;;;;11.67;100.00;98187.00;10449377;28;20127;-64
2021/12/30 11:25:04;;;;;;;0.90;0.50;;;;;;;11.71;100.00;98198.28;10456604;28;20128;-64
2021/12/30 11:30:11;;;;;;;0.88;0.47;;;;;;;11.80;100.00;98180.19;10450191;28;20076;-61
2021/12/30 11:35:29;;;;;;;1.00;0.60;;;;;;;11.91;100.00;98174.41;10447265;28;20099;-63
2021/12/30 11:40:32;;;;;;;0.88;0.45;;;;;;;12.03;100.00;98174.88;10464007;28;20044;-63
2021/12/30 11:45:39;;;;;;;0.55;0.28;;;;;;;12.18;100.00;98172.25;10468025;28;20417;-62
2021/12/30 11:50:42;;;;;;;0.20;0.20;;;;;;;12.38;100.00;98177.22;10469707;28;20856;-63
2021/12/30 11:55:51;;;;;;;0.20;0.20;;;;;;;12.58;100.00;98172.19;10452305;28;20044;-61
2021/12/30 12:00:56;;;;;;;0.35;0.10;;;;;;;12.77;100.00;98163.59;10476273;28;20136;-60
2021/12/30 12:06:00;;;;;;;0.43;0.22;;;;;;;12.89;100.00;98166.69;10476514;28;20048;-61
2021/12/30 12:11:16;;;;;;;0.13;0.13;;;;;;;12.98;100.00;98167.44;10462862;28;20045;-61
2021/12/30 12:16:46;;;;;;;0.20;0.20;;;;;;;13.05;100.00;98172.97;10447446;28;20509;-61
2021/12/30 12:21:52;;;;;;;0.40;0.20;;;;;;;13.20;100.00;98164.88;10452466;28;20556;-61
2021/12/30 12:26:58;;;;;;;0.40;0.20;;;;;;;13.34;100.00;98169.47;10449335;28;20055;-58
2021/12/30 12:32:10;;;;;;;0.40;0.30;;;;;;;13.37;100.00;98157.44;10460964;28;20077;-60
2021/12/30 12:37:48;;;;;;;1.67;0.10;;;;;;;13.46;100.00;98159.06;10455911;28;20068;-61
2021/12/30 12:42:57;;;;;;;0.68;0.30;;;;;;;13.65;100.00;98163.06;10462785;28;20112;-62
2021/12/30 12:48:22;;;;;;;1.23;0.30;;;;;;;13.74;100.00;98163.81;10488262;28;20044;-61
2021/12/30 12:53:45;;;;;;;0.20;0.20;;;;;;;13.82;100.00;98158.28;10505918;28;20033;-59
2021/12/30 12:58:53;;;;;;;0.38;0.30;;;;;;;13.89;100.00;98160.25;10509727;28;20055;-60
2021/12/30 13:04:03;;;;;;;0.70;0.25;;;;;;;13.83;100.00;98165.38;10515407;28;20038;-58
2021/12/30 13:09:09;;;;;;;0.40;0.25;;;;;;;13.78;100.00;98157.00;10493083;28;20036;-61
2021/12/30 13:14:18;;;;;;;1.17;0.20;;;;;;;13.70;100.00;98162.53;10500696;28;20413;-60
2021/12/30 13:19:24;;;;;;;0.20;0.20;;;;;;;13.68;100.00;98172.69;10480137;28;20041;-61
2021/12/30 13:24:32;;;;;;;0.43;0.20;;;;;;;13.68;100.00;98172.69;10466344;28;20131;-61
2021/12/30 13:29:38;;;;;;;0.38;0.20;;;;;;;13.67;100.00;98179.13;10471894;28;20060;-61
2021/12/30 13:34:57;;;;;;;0.30;0.20;;;;;;;13.66;100.00;98180.16;10469003;28;20186;-60
2021/12/30 13:40:02;;;;;;;0.40;0.28;;;;;;;13.77;100.00;98192.34;10477033;28;20090;-59
2021/12/30 13:45:05;;;;;;;1.00;0.30;;;;;;;13.75;100.00;98189.03;10433381;28;20037;-58
2021/12/30 13:50:13;;;;;;;0.20;0.20;;;;;;;13.77;100.00;98187.81;10437583;28;20056;-58
2021/12/30 13:55:24;;;;;;;0.80;0.20;;;;;;;13.84;100.00;98204.97;10458635;28;20036;-61
2021/12/30 14:00:29;;;;;;;0.30;0.30;;;;;;;13.93;100.00;98213.84;10465027;28;20040;-60
2021/12/30 14:05:32;;;;;;;0.57;0.20;;;;;;;13.97;100.00;98215.16;10436095;28;20052;-58
2021/12/30 14:10:56;;;;;;;0.15;0.10;;;;;;;13.94;100.00;98218.22;10453849;28;20057;-55
2021/12/30 14:16:00;;;;;;;0.50;0.30;;;;;;;14.06;100.00;98215.88;10455480;28;20040;-58
2021/12/30 14:21:05;;;;;;;0.30;0.30;;;;;;;14.01;100.00;98226.44;10451583;28;20072;-57
2021/12/30 14:26:14;;;;;;;0.25;0.20;;;;;;;13.93;100.00;98226.56;10466219;28;20129;-56
2021/12/30 14:31:30;;;;;;;0.82;0.30;;;;;;;13.94;100.00;98247.16;10437267;28;20576;-57
2021/12/30 14:36:33;;;;;;;0.30;0.30;;;;;;;13.86;100.00;98246.25;10447139;28;20398;-59
2021/12/30 14:41:38;;;;;;;0.60;0.40;;;;;;;13.83;100.00;98259.31;10444282;28;20075;-59
2021/12/30 14:46:43;;;;;;;2.03;0.30;;;;;;;13.83;100.00;98264.75;10443231;28;20051;-62
2021/12/30 14:51:46;;;;;;;1.55;0.30;;;;;;;13.73;100.00;98256.88;10443922;28;20049;-62
2021/12/30 14:56:50;;;;;;;0.30;0.20;;;;;;;13.64;100.00;98277.78;10437232;28;20044;-62
2021/12/30 15:01:54;;;;;;;0.30;0.20;;;;;;;13.69;100.00;98271.84;10452283;28;20044;-63
2021/12/30 15:06:57;;;;;;;0.63;0.28;;;;;;;13.70;100.00;98273.50;10463790;28;20048;-60
2021/12/30 15:12:04;;;;;;;0.63;0.10;;;;;;;13.65;100.00;98300.28;10481136;28;20071;-59
2021/12/30 15:17:07;;;;;;;0.20;0.20;;;;;;;13.17;100.00;98320.28;10461926;28;20128;-59
2021/12/30 15:22:11;;;;;;;0.30;0.30;;;;;;;12.80;100.00;98302.94;10466100;28;20497;-60
2021/12/30 15:27:16;;;;;;;0.50;0.30;;;;;;;12.69;100.00;98323.13;10465411;28;20095;-60
2021/12/30 15:32:20;;;;;;;1.00;0.40;;;;;;;12.62;100.00;98339.22;10465905;28;20110;-61
2021/12/30 15:37:23;;;;;;;1.00;0.43;;;;;;;12.54;100.00;98344.63;10456338;28;20563;-61
2021/12/30 15:42:28;;;;;;;0.68;0.50;;;;;;;12.49;100.00;98363.25;10463113;28;20049;-59
2021/12/30 15:47:31;;;;;;;1.80;0.60;;;;;;;12.35;100.00;98404.50;10435639;28;20048;-60
2021/12/30 15:52:34;;;;;;;1.70;0.70;;;;;;;12.23;100.00;98379.72;10456662;28;20043;-60
2021/12/30 15:57:40;;;;;;;1.48;0.52;;;;;;;12.21;100.00;98382.56;10455406;28;20128;-62
2021/12/30 16:02:44;;;;;;;0.75;0.50;;;;;;;12.31;100.00;98368.88;10453540;28;20139;-61
2021/12/30 16:07:48;;;;;;;0.73;0.70;;;;;;;12.22;100.00;98365.34;10453502;28;20052;-56
2021/12/30 16:12:55;;;;;;;0.77;0.60;;;;;;;12.29;100.00;98352.84;10452530;28;20402;-58
2021/12/30 16:17:58;;;;;;;0.77;0.57;;;;;;;12.34;100.00;98338.84;10451720;28;20052;-61
2021/12/30 16:23:01;;;;;;;0.73;0.55;;;;;;;12.40;100.00;98321.91;10457345;28;20123;-62
2021/12/30 16:28:08;;;;;;;0.85;0.60;;;;;;;12.51;100.00;98312.59;10449268;28;20115;-61
2021/12/30 16:33:13;;;;;;;0.75;0.50;;;;;;;12.57;100.00;98314.56;10446097;28;20133;-60
2021/12/30 16:38:17;;;;;;;0.68;0.40;;;;;;;12.58;100.00;98318.94;10448165;28;20155;-61
2021/12/30 16:43:22;;;;;;;1.98;0.50;;;;;;;12.57;100.00;98330.78;10448195;28;20127;-61
2021/12/30 16:48:26;;;;;;;2.15;0.57;;;;;;;12.51;100.00;98342.31;10447436;28;20115;-61
2021/12/30 16:53:29;;;;;;;1.08;0.50;;;;;;;12.62;100.00;98330.25;10446204;28;20095;-60
2021/12/30 16:58:34;;;;;;;0.77;0.50;;;;;;;12.62;100.00;98351.88;10439289;28;20127;-61
2021/12/30 17:03:37;;;;;;;0.57;0.47;;;;;;;12.67;100.00;98354.03;10474769;28;20044;-60
2021/12/30 17:08:40;;;;;;;0.73;0.50;;;;;;;12.68;100.00;98359.28;10463641;28;20513;-61
2021/12/30 17:13:46;;;;;;;2.00;0.50;;;;;;;12.67;100.00;98359.44;10471063;28;20100;-61
2021/12/30 17:18:50;;;;;;;0.80;0.50;;;;;;;12.69;100.00;98363.69;10466607;28;20060;-59
2021/12/30 17:23:54;;;;;;;1.83;0.40;;;;;;;12.67;100.00;98364.84;10456517;28;20064;-60
2021/12/30 17:28:59;;;;;;;1.58;0.50;;;;;;;12.67;100.00;98368.41;10461437;28;20059;-58
2021/12/30 17:34:04;;;;;;;1.52;0.60;;;;;;;12.78;100.00;98377.97;10466318;28;20095;-59
2021/12/30 17:39:07;;;;;;;0.98;0.50;;;;;;;12.86;100.00;98382.50;10466723;28;20485;-58
2021/12/30 17:44:12;;;;;;;0.98;0.40;;;;;;;12.74;100.00;98379.38;10460078;28;20044;-59
2021/12/30 17:49:15;;;;;;;0.38;0.38;;;;;;;12.69;100.00;98382.59;10456850;28;20072;-60
2021/12/30 17:54:18;;;;;;;0.90;0.47;;;;;;;12.64;100.00;98377.69;10444997;28;20045;-57
2021/12/30 17:59:23;;;;;;;1.52;0.50;;;;;;;12.55;100.00;98384.16;10482997;28;20048;-60
2021/12/30 18:04:27;;;;;;;1.30;0.70;;;;;;;12.47;100.00;98392.31;10469367;28;20051;-60
2021/12/30 18:09:30;;;;;;;0.40;0.40;;;;;;;12.45;100.00;98389.78;10496275;28;20040;-58
2021/12/30 18:14:35;;;;;;;0.30;0.30;;;;;;;12.48;100.00;98388.59;10494895;28;20127;-59
2021/12/30 18:19:39;;;;;;;0.43;0.30;;;;;;;12.58;100.00;98400.03;10495661;28;20040;-60
2021/12/30 18:24:44;;;;;;;1.08;0.47;;;;;;;12.63;100.00;98416.56;10491456;28;20510;-58
2021/12/30 18:29:49;;;;;;;0.73;0.50;;;;;;;12.67;100.00;98416.19;10480678;28;20064;-59
2021/12/30 18:34:53;;;;;;;0.45;0.40;;;;;;;12.73;100.00;98418.22;10486232;28;20138;-60
2021/12/30 18:39:57;;;;;;;0.55;0.43;;;;;;;12.73;100.00;98432.56;10485830;28;20040;-63
2021/12/30 18:45:02;;;;;;;0.50;0.50;;;;;;;12.73;100.00;98445.25;10487758;28;20044;-60
2021/12/30 18:50:08;;;;;;;0.50;0.50;;;;;;;12.71;100.00;98444.56;10478220;28;20106;-58
2021/12/30 18:55:14;;;;;;;1.75;0.50;;;;;;;12.67;100.00;98446.78;10492521;28;20032;-62
2021/12/30 19:00:22;;;;;;;0.45;0.45;;;;;;;12.67;100.00;98448.63;10476916;28;20337;-62
2021/12/30 19:05:27;;;;;;;0.82;0.60;;;;;;;12.70;100.00;98448.31;10503357;28;20140;-58
2021/12/30 19:10:31;;;;;;;1.08;0.65;;;;;;;12.56;100.00;98450.69;10492003;28;20040;-61
2021/12/30 19:15:38;;;;;;;0.52;0.52;;;;;;;12.51;100.00;98449.53;10489620;28;20051;-55
2021/12/30 19:20:42;;;;;;;1.42;0.70;;;;;;;12.41;100.00;98442.47;10491699;28;20048;-60
2021/12/30 19:25:46;;;;;;;3.22;0.75;;;;;;;12.39;100.00;98449.06;10495464;28;20062;-60
2021/12/30 19:30:51;;;;;;;0.50;0.50;;;;;;;12.41;100.00;98458.69;10479702;28;20056;-65
2021/12/30 19:35:56;;;;;;;1.52;0.50;;;;;;;12.41;100.00;98453.28;10499142;28;20048;-60
2021/12/30 19:41:01;;;;;;;1.30;0.50;;;;;;;12.49;100.00;98461.34;10492720;28;20158;-60
2021/12/30 19:46:05;;;;;;;0.68;0.60;;;;;;;12.53;100.00;98474.53;10488725;28;20040;-58
2021/12/30 19:51:10;;;;;;;0.85;0.60;;;;;;;12.51;100.00;98469.31;10496000;28;20044;-59
2021/12/30 19:56:14;;;;;;;1.65;0.40;;;;;;;12.58;100.00;98464.88;10504169;28;20380;-62
2021/12/30 20:01:19;;;;;;;0.30;0.30;;;;;;;12.60;100.00;98467.41;10505356;28;20054;-59
2021/12/30 20:06:24;;;;;;;2.15;0.75;;;;;;;12.66;100.00;98471.28;10482380;28;20687;-59
2021/12/30 20:11:27;;;;;;;0.77;0.40;;;;;;;12.64;100.00;98479.56;10500120;28;20048;-59
2021/12/30 20:16:32;;;;;;;0.50;0.40;;;;;;;12.63;100.00;98457.13;10500315;28;20133;-62
2021/12/30 20:21:36;;;;;;;0.47;0.47;;;;;;;12.64;100.00;98455.25;10500084;28;20045;-58
2021/12/30 20:26:39;;;;;;;0.45;0.45;;;;;;;12.67;100.00;98467.56;10476455;28;20131;-59
2021/12/30 20:31:45;;;;;;;0.88;0.60;;;;;;;12.61;100.00;98456.44;10491452;28;20076;-59
2021/12/30 20:36:48;;;;;;;2.35;0.75;;;;;;;12.54;100.00;98465.41;10483194;28;20537;-58
2021/12/30 20:41:51;;;;;;;0.73;0.57;;;;;;;12.60;100.00;98468.28;10475572;28;20666;-63
2021/12/30 20:46:57;;;;;;;0.57;0.50;;;;;;;12.72;100.00;98467.91;10479960;28;20081;-62
2021/12/30 20:52:05;;;;;;;2.08;0.50;;;;;;;12.61;100.00;98483.47;10481989;28;20516;-63
2021/12/30 20:57:09;;;;;;;1.08;0.43;;;;;;;12.57;100.00;98495.63;10485164;28;20099;-64
2021/12/30 21:02:13;;;;;;;1.15;0.60;;;;;;;12.59;100.00;98509.81;10482019;28;20483;-62
2021/12/30 21:07:17;;;;;;;2.15;0.60;;;;;;;12.68;100.00;98510.66;10481211;28;20043;-61
2021/12/30 21:12:20;;;;;;;1.70;0.52;;;;;;;12.75;100.00;98508.94;10482142;28;20131;-62
2021/12/30 21:17:26;;;;;;;1.92;0.60;;;;;;;12.79;100.00;98520.25;10482713;28;20120;-63
2021/12/30 21:22:29;;;;;;;1.08;0.60;;;;;;;12.73;100.00;98520.94;10461226;28;20066;-64
2021/12/30 21:27:32;;;;;;;1.17;0.65;;;;;;;12.73;100.00;98515.53;10484520;28;20539;-64
2021/12/30 21:32:37;;;;;;;2.28;0.85;;;;;;;12.70;100.00;98507.75;10491380;28;20310;-63
2021/12/30 21:37:40;;;;;;;3.20;0.68;;;;;;;12.74;100.00;98512.66;10477969;28;20041;-59
2021/12/30 21:42:44;;;;;;;3.40;0.80;;;;;;;12.68;100.00;98520.59;10500335;28;20086;-62
2021/12/30 21:47:48;;;;;;;0.55;0.50;;;;;;;12.66;100.00;98537.00;10497944;28;20119;-62
2021/12/30 21:52:52;;;;;;;1.40;0.60;;;;;;;12.70;100.00;98538.31;10495081;28;20136;-61
2021/12/30 21:57:55;;;;;;;2.15;0.60;;;;;;;12.67;100.00;98533.28;10490080;28;20609;-60
2021/12/30 22:03:00;;;;;;;1.13;0.60;;;;;;;12.68;100.00;98534.13;10501982;28;20124;-62
2021/12/30 22:08:06;;;;;;;2.63;0.75;;;;;;;12.66;100.00;98546.97;10498698;28;20036;-64
2021/12/30 22:13:10;;;;;;;2.72;0.77;;;;;;;12.62;100.00;98532.94;10502006;28;20098;-64
2021/12/30 22:18:33;;;;;;;1.98;0.70;;;;;;;12.57;100.00;98532.63;10495038;28;20043;-64
2021/12/30 22:23:36;;;;;;;1.23;0.60;;;;;;;12.56;100.00;98530.94;10492527;28;20108;-60
2021/12/30 22:28:39;;;;;;;0.85;0.60;;;;;;;12.59;100.00;98533.28;10504195;28;20048;-60
2021/12/30 22:33:43;;;;;;;0.55;0.50;;;;;;;12.53;100.00;98537.53;10493173;28;20143;-58
2021/12/30 22:38:46;;;;;;;1.60;0.50;;;;;;;12.50;100.00;98540.59;10504658;28;20540;-62
2021/12/30 22:43:49;;;;;;;1.73;0.50;;;;;;;12.56;100.00;98542.59;10508634;28;20123;-61
2021/12/30 22:48:54;;;;;;;0.40;0.40;;;;;;;12.47;100.00;98551.72;10494336;28;20467;-62
2021/12/30 22:53:57;;;;;;;0.70;0.35;;;;;;;12.48;100.00;98572.34;10493757;28;20100;-58
2021/12/30 22:59:01;;;;;;;1.27;0.47;;;;;;;12.54;100.00;98570.81;10502471;28;20075;-64
2021/12/30 23:04:05;;;;;;;0.90;0.32;;;;;;;12.41;100.00;98582.09;10497219;28;20131;-64
2021/12/30 23:09:09;;;;;;;0.47;0.30;;;;;;;12.45;100.00;98578.06;10492549;28;20032;-61
2021/12/30 23:14:12;;;;;;;0.45;0.30;;;;;;;12.41;100.00;98579.41;10497987;28;20131;-64
2021/12/30 23:19:17;;;;;;;0.50;0.30;;;;;;;12.30;100.00;98578.72;10494779;28;20080;-63
2021/12/30 23:24:20;;;;;;;0.32;0.20;;;;;;;12.33;100.00;98586.50;10475643;28;20052;-60
2021/12/30 23:29:24;;;;;;;0.85;0.20;;;;;;;12.55;100.00;98578.72;10493955;28;20048;-60